Time;durP1;ratioP1;P1;durP2;ratioP2;P2;SDS_P1;SDS_P2;PMS_P1;PMS_P2;Temp;Humidity;BMP_temperature;BMP_pressure;BME280_temperature;BME280_humidity;BME280_pressure;Samples;Min_cycle;Max_cycle;Signal;HPM_P1;HPM_P2
2022/05/09 03:02:23;;;;;;;1.95;1.85;;;23.10;48.00;;;;;;5025629;23;45796;-63
2022/05/09 03:04:48;;;;;;;1.90;1.80;;;23.10;48.00;;;;;;4902720;28;46402;-63
2022/05/09 03:07:15;;;;;;;2.17;1.98;;;23.10;48.00;;;;;;4899996;28;45476;-64
2022/05/09 03:09:42;;;;;;;2.08;1.95;;;23.10;48.10;;;;;;4907710;28;45733;-65
2022/05/09 03:12:09;;;;;;;1.95;1.85;;;23.10;48.10;;;;;;4889252;28;45275;-64
2022/05/09 03:14:37;;;;;;;2.22;2.03;;;23.10;48.10;;;;;;4884904;28;45479;-65
2022/05/09 03:17:04;;;;;;;2.10;1.90;;;23.10;48.10;;;;;;4879665;28;45391;-65
2022/05/09 03:19:29;;;;;;;2.30;2.10;;;23.10;48.00;;;;;;4905537;28;44758;-65
2022/05/09 03:21:55;;;;;;;2.10;1.90;;;23.10;48.00;;;;;;4907729;28;45282;-64
2022/05/09 03:24:21;;;;;;;2.80;1.95;;;23.10;48.00;;;;;;4912884;28;45297;-65
2022/05/09 03:26:47;;;;;;;2.10;1.90;;;23.10;48.00;;;;;;4916639;28;44962;-65
2022/05/09 03:29:13;;;;;;;2.08;1.88;;;23.10;48.00;;;;;;4898632;28;45466;-65
2022/05/09 03:31:38;;;;;;;1.92;1.73;;;23.10;48.00;;;;;;4904411;28;45514;-64
2022/05/09 03:34:04;;;;;;;2.03;1.92;;;23.10;48.00;;;;;;4908376;28;45662;-65
2022/05/09 03:36:30;;;;;;;2.05;1.90;;;23.10;48.00;;;;;;4904318;28;46010;-65
2022/05/09 03:38:57;;;;;;;2.20;2.00;;;23.10;48.00;;;;;;4904476;28;45432;-65
2022/05/09 03:41:22;;;;;;;1.90;1.80;;;23.00;48.00;;;;;;4889274;28;45418;-64
2022/05/09 03:43:48;;;;;;;2.15;1.95;;;23.00;48.00;;;;;;4893544;28;45440;-65
2022/05/09 03:46:14;;;;;;;1.77;1.55;;;23.00;48.00;;;;;;4913749;28;45333;-66
2022/05/09 03:48:39;;;;;;;2.20;2.00;;;23.00;47.90;;;;;;4926485;28;45444;-64
2022/05/09 03:51:05;;;;;;;2.10;1.90;;;23.00;47.90;;;;;;4892986;28;45340;-66
2022/05/09 03:53:31;;;;;;;2.13;1.90;;;23.10;48.00;;;;;;4899753;28;45320;-65
2022/05/09 03:55:56;;;;;;;1.95;1.85;;;23.00;47.90;;;;;;4887538;28;45197;-65
2022/05/09 03:58:22;;;;;;;1.98;1.88;;;23.00;47.90;;;;;;4889241;28;45419;-65
2022/05/09 04:00:48;;;;;;;2.95;1.98;;;23.00;47.90;;;;;;4873285;28;45519;-65
2022/05/09 04:03:14;;;;;;;1.85;1.70;;;23.00;47.90;;;;;;4916985;28;45483;-65
2022/05/09 04:05:40;;;;;;;1.92;1.70;;;23.00;47.90;;;;;;4916982;28;45401;-64
2022/05/09 04:08:07;;;;;;;2.42;2.22;;;23.00;47.90;;;;;;4922102;28;45543;-65
2022/05/09 04:10:33;;;;;;;2.20;1.77;;;23.00;47.90;;;;;;4893796;28;44808;-65
2022/05/09 04:12:59;;;;;;;2.20;2.00;;;23.00;48.00;;;;;;4917229;28;45344;-65
2022/05/09 04:18:10;;;;;;;1.98;1.80;;;22.90;47.90;;;;;;4921248;28;45354;-65
2022/05/09 04:20:36;;;;;;;1.83;1.73;;;22.90;48.00;;;;;;4919149;28;45405;-65
2022/05/09 04:23:02;;;;;;;2.05;1.85;;;22.90;48.00;;;;;;4910888;28;46437;-65
2022/05/09 04:25:31;;;;;;;1.85;1.75;;;22.90;48.00;;;;;;4927877;28;44882;-65
2022/05/09 04:27:58;;;;;;;1.90;1.80;;;22.90;48.00;;;;;;4920885;28;45032;-65
2022/05/09 04:30:23;;;;;;;3.10;2.08;;;22.90;48.00;;;;;;4918420;28;45481;-66
2022/05/09 04:32:49;;;;;;;2.00;1.73;;;22.90;48.00;;;;;;4915251;28;45618;-65
2022/05/09 04:35:19;;;;;;;2.22;2.00;;;22.90;48.00;;;;;;4897637;28;45053;-66
2022/05/09 04:37:48;;;;;;;1.90;1.67;;;22.90;48.00;;;;;;4933836;28;45466;-66
2022/05/09 04:40:19;;;;;;;1.60;1.50;;;22.90;48.00;;;;;;4924372;28;45065;-66
2022/05/09 04:42:45;;;;;;;2.08;1.85;;;22.90;47.90;;;;;;4918659;28;45313;-66
2022/05/09 04:45:11;;;;;;;3.00;2.10;;;22.90;47.90;;;;;;4912611;28;45154;-65
2022/05/09 04:47:37;;;;;;;2.00;1.80;;;22.90;48.00;;;;;;4906989;28;45422;-66
2022/05/09 04:50:07;;;;;;;1.95;1.75;;;22.90;48.00;;;;;;4921606;28;45208;-67
2022/05/09 04:52:41;;;;;;;1.83;1.73;;;22.90;48.00;;;;;;4892277;28;47974;-65
2022/05/09 04:55:40;;;;;;;2.60;1.75;;;22.90;48.00;;;;;;4940950;28;44652;-65
2022/05/09 04:58:19;;;;;;;2.05;1.80;;;22.90;47.90;;;;;;4905340;28;46381;-65
2022/05/09 05:00:44;;;;;;;1.90;1.65;;;22.90;48.00;;;;;;4906749;28;45650;-64
2022/05/09 05:03:10;;;;;;;1.73;1.63;;;22.90;48.00;;;;;;4877499;28;45674;-64
2022/05/09 05:05:36;;;;;;;2.92;1.77;;;22.90;48.00;;;;;;4893768;28;45301;-64
2022/05/09 05:08:02;;;;;;;2.15;1.73;;;22.90;48.00;;;;;;4890698;28;45632;-63
2022/05/09 05:10:28;;;;;;;1.45;1.35;;;22.90;48.00;;;;;;4891989;28;45475;-64
2022/05/09 05:12:54;;;;;;;2.70;1.77;;;22.90;48.00;;;;;;4880324;28;45357;-64
2022/05/09 05:15:19;;;;;;;2.83;1.77;;;22.90;48.00;;;;;;4893697;28;45454;-64
2022/05/09 05:17:45;;;;;;;2.00;1.80;;;22.90;48.00;;;;;;4894811;28;45511;-64
2022/05/09 05:20:14;;;;;;;1.70;1.60;;;22.90;47.90;;;;;;4920074;28;45530;-64
2022/05/09 05:22:41;;;;;;;1.80;1.70;;;23.00;47.80;;;;;;4911109;28;47315;-65
2022/05/09 05:25:07;;;;;;;1.60;1.50;;;23.00;47.70;;;;;;4877538;28;45314;-65
2022/05/09 05:27:33;;;;;;;2.05;1.58;;;23.10;47.70;;;;;;4885126;28;45717;-64
2022/05/09 05:29:59;;;;;;;1.63;1.52;;;23.10;47.80;;;;;;4920506;28;45660;-66
2022/05/09 05:32:31;;;;;;;1.83;1.73;;;23.20;47.50;;;;;;4906650;28;45711;-66
2022/05/09 05:34:57;;;;;;;1.95;1.85;;;23.20;47.30;;;;;;4891815;28;45274;-66
2022/05/09 05:37:22;;;;;;;2.38;1.85;;;23.30;47.30;;;;;;4912961;28;45159;-65
2022/05/09 05:39:48;;;;;;;2.03;1.83;;;23.30;47.20;;;;;;4899449;28;45482;-65
2022/05/09 05:42:15;;;;;;;1.80;1.70;;;23.40;47.10;;;;;;4878621;28;46989;-65
2022/05/09 05:44:41;;;;;;;1.73;1.63;;;23.40;47.00;;;;;;4898945;28;45283;-66
2022/05/09 05:47:08;;;;;;;1.60;1.50;;;23.40;47.00;;;;;;4917107;28;45504;-66
2022/05/09 05:49:34;;;;;;;2.10;1.90;;;23.40;47.00;;;;;;4917231;28;45264;-66
2022/05/09 05:52:03;;;;;;;1.88;1.67;;;23.40;47.20;;;;;;4915497;28;45400;-66
2022/05/09 05:54:34;;;;;;;1.90;1.70;;;23.30;47.10;;;;;;4911285;28;44932;-66
2022/05/09 05:57:00;;;;;;;2.42;1.67;;;23.30;47.20;;;;;;4921203;28;45352;-66
2022/05/09 05:59:26;;;;;;;2.20;2.00;;;23.30;47.30;;;;;;4916116;28;44953;-66
2022/05/09 06:01:52;;;;;;;1.42;1.33;;;23.30;47.30;;;;;;4912102;28;45422;-67
2022/05/09 06:04:19;;;;;;;2.55;1.92;;;23.30;47.30;;;;;;4910366;28;45106;-67
2022/05/09 06:06:45;;;;;;;1.88;1.77;;;23.30;47.30;;;;;;4929285;28;45023;-68
2022/05/09 06:09:12;;;;;;;1.75;1.65;;;23.30;47.30;;;;;;4917369;28;45265;-68
2022/05/09 06:11:38;;;;;;;1.92;1.45;;;23.30;47.30;;;;;;4903499;28;47277;-70
2022/05/09 06:14:05;;;;;;;2.33;2.00;;;23.30;47.40;;;;;;4918230;28;45269;-68
2022/05/09 06:16:30;;;;;;;1.80;1.60;;;23.30;47.40;;;;;;4919057;28;45296;-69
2022/05/09 06:18:56;;;;;;;3.08;1.55;;;23.30;47.40;;;;;;4922385;28;45223;-68
2022/05/09 06:21:22;;;;;;;1.80;1.52;;;23.30;47.50;;;;;;4899864;28;45231;-68
2022/05/09 06:23:49;;;;;;;1.70;1.60;;;23.30;47.50;;;;;;4918311;28;45395;-67
2022/05/09 06:26:14;;;;;;;2.88;1.90;;;23.30;47.50;;;;;;4906583;28;44971;-67
2022/05/09 06:28:41;;;;;;;1.77;1.60;;;23.30;47.50;;;;;;4915811;28;45699;-68
2022/05/09 06:31:06;;;;;;;1.77;1.45;;;23.30;47.50;;;;;;4903473;28;45431;-67
2022/05/09 06:33:32;;;;;;;1.50;1.40;;;23.40;47.50;;;;;;4901862;28;45026;-67
2022/05/09 06:35:58;;;;;;;1.77;1.67;;;23.40;47.50;;;;;;4922735;28;45219;-67
2022/05/09 06:38:25;;;;;;;2.75;2.17;;;23.40;47.50;;;;;;4883984;28;45318;-67
2022/05/09 06:40:52;;;;;;;1.50;1.25;;;23.40;47.50;;;;;;4936360;28;45342;-66
2022/05/09 06:43:18;;;;;;;1.60;1.50;;;23.50;47.50;;;;;;4898450;28;45210;-66
2022/05/09 06:45:44;;;;;;;1.77;1.63;;;23.50;47.50;;;;;;4920510;28;45344;-65
2022/05/09 06:48:10;;;;;;;1.88;1.75;;;23.50;47.50;;;;;;4931645;28;45219;-65
2022/05/09 06:50:36;;;;;;;2.10;1.77;;;23.50;47.50;;;;;;4915364;28;45517;-65
2022/05/09 06:53:02;;;;;;;1.67;1.50;;;23.50;47.50;;;;;;4926341;28;45354;-66
2022/05/09 06:55:27;;;;;;;1.65;1.38;;;23.50;47.50;;;;;;4906357;28;45338;-66
2022/05/09 06:57:53;;;;;;;3.15;1.83;;;23.60;47.50;;;;;;4929864;28;44983;-66
2022/05/09 07:00:22;;;;;;;1.88;1.40;;;23.60;47.50;;;;;;4908584;28;46256;-67
2022/05/09 07:02:47;;;;;;;2.10;1.50;;;23.60;47.50;;;;;;4900939;28;45419;-67
2022/05/09 07:05:15;;;;;;;2.60;1.55;;;23.60;47.50;;;;;;4908870;28;45200;-68
2022/05/09 07:07:42;;;;;;;1.80;1.45;;;23.60;47.40;;;;;;4940594;28;45115;-67
2022/05/09 07:10:08;;;;;;;1.30;1.20;;;23.60;47.40;;;;;;4917376;28;46155;-68
2022/05/09 07:12:43;;;;;;;2.03;1.60;;;23.70;47.40;;;;;;4904186;28;45269;-67
2022/05/09 07:15:10;;;;;;;1.92;1.50;;;23.70;47.40;;;;;;4884667;28;45506;-67
2022/05/09 07:17:36;;;;;;;1.80;1.70;;;23.70;47.40;;;;;;4932285;28;45450;-67
2022/05/09 07:20:03;;;;;;;3.10;1.42;;;23.80;47.50;;;;;;4937265;28;45239;-66
2022/05/09 07:22:29;;;;;;;2.25;2.03;;;23.80;47.50;;;;;;4930581;28;45780;-66
2022/05/09 07:24:55;;;;;;;1.60;1.50;;;23.80;47.50;;;;;;4915855;28;45163;-67
2022/05/09 07:27:20;;;;;;;2.53;1.35;;;23.80;47.50;;;;;;4912363;28;44787;-66
2022/05/09 07:29:46;;;;;;;1.98;1.58;;;23.80;47.40;;;;;;4920831;28;45452;-65
2022/05/09 07:32:12;;;;;;;2.78;1.45;;;23.90;47.40;;;;;;4917034;28;45324;-66
2022/05/09 07:34:37;;;;;;;1.67;1.33;;;23.90;47.40;;;;;;4930690;28;45309;-66
2022/05/09 07:37:03;;;;;;;2.33;1.88;;;23.90;47.40;;;;;;4896280;28;45304;-66
2022/05/09 07:39:30;;;;;;;2.17;1.48;;;23.90;47.40;;;;;;4933522;28;45805;-66
2022/05/09 07:41:56;;;;;;;1.42;1.33;;;24.00;47.40;;;;;;4905692;28;45692;-67
2022/05/09 07:44:22;;;;;;;2.88;1.33;;;24.00;47.40;;;;;;4916495;28;45317;-66
2022/05/09 07:46:48;;;;;;;1.85;1.50;;;24.00;47.30;;;;;;4933014;28;45398;-66
2022/05/09 07:49:13;;;;;;;1.60;1.50;;;24.00;47.30;;;;;;4931561;28;45831;-67
2022/05/09 07:51:39;;;;;;;1.58;1.48;;;24.10;47.40;;;;;;4903689;28;44841;-67
2022/05/09 07:54:05;;;;;;;1.70;1.60;;;24.10;47.40;;;;;;4916796;28;45227;-66
2022/05/09 07:56:31;;;;;;;3.42;1.70;;;24.10;47.40;;;;;;4918950;28;45394;-67
2022/05/09 07:58:57;;;;;;;1.83;1.50;;;24.10;47.30;;;;;;4929400;28;45533;-66
2022/05/09 08:01:22;;;;;;;1.73;1.60;;;24.10;47.30;;;;;;4932441;28;45463;-66
2022/05/09 08:03:48;;;;;;;1.88;1.30;;;24.20;47.40;;;;;;4931210;28;45344;-66
2022/05/09 08:06:13;;;;;;;2.28;1.52;;;24.20;47.40;;;;;;4915550;28;45451;-67
2022/05/09 08:08:40;;;;;;;1.95;1.63;;;24.20;47.40;;;;;;4931539;28;45064;-67
2022/05/09 08:11:06;;;;;;;2.15;1.48;;;24.20;47.40;;;;;;4894674;28;45395;-66
2022/05/09 08:13:33;;;;;;;1.80;1.60;;;24.20;47.40;;;;;;4915406;28;45370;-67
2022/05/09 08:15:59;;;;;;;2.05;1.50;;;24.30;47.40;;;;;;4910179;28;45093;-68
2022/05/09 08:18:25;;;;;;;1.63;1.52;;;24.30;47.30;;;;;;4897905;28;45516;-67
2022/05/09 08:20:53;;;;;;;1.70;1.60;;;24.30;47.30;;;;;;4912889;28;44614;-69
2022/05/09 08:23:18;;;;;;;1.48;1.38;;;24.30;47.30;;;;;;4898966;28;45691;-68
2022/05/09 08:25:46;;;;;;;2.55;1.45;;;24.40;47.30;;;;;;4914185;28;45729;-66
2022/05/09 08:28:12;;;;;;;1.60;1.50;;;24.40;47.30;;;;;;4916613;28;45208;-67
2022/05/09 08:30:38;;;;;;;1.63;1.30;;;24.40;47.20;;;;;;4894590;28;45260;-66
2022/05/09 08:33:06;;;;;;;1.52;1.42;;;24.40;47.20;;;;;;4894136;28;45251;-66
2022/05/09 08:35:32;;;;;;;1.92;1.65;;;24.40;47.10;;;;;;4898140;28;45867;-66
2022/05/09 08:37:57;;;;;;;1.45;1.35;;;24.50;47.10;;;;;;4934041;28;45312;-65
2022/05/09 08:41:02;;;;;;;1.88;1.77;;;24.50;47.00;;;;;;4917279;28;45240;-65
2022/05/09 08:43:34;;;;;;;3.00;1.73;;;24.50;46.90;;;;;;4900275;28;45206;-68
2022/05/09 08:46:19;;;;;;;1.50;1.40;;;24.50;46.90;;;;;;4905540;28;44881;-67
2022/05/09 08:49:05;;;;;;;1.60;1.50;;;24.60;47.00;;;;;;4916868;28;45185;-68
2022/05/09 08:51:59;;;;;;;1.85;1.48;;;24.60;47.00;;;;;;4918952;28;45385;-68
2022/05/09 08:54:25;;;;;;;2.20;1.60;;;24.60;47.00;;;;;;4867098;28;44974;-67
2022/05/09 08:56:56;;;;;;;1.50;1.40;;;24.60;47.00;;;;;;4930965;28;45231;-67
2022/05/09 08:59:26;;;;;;;1.48;1.35;;;24.60;47.00;;;;;;4923525;28;45799;-68
2022/05/09 09:02:02;;;;;;;1.85;1.45;;;24.70;47.00;;;;;;4902583;28;44937;-66
2022/05/09 09:04:32;;;;;;;2.50;1.42;;;24.70;47.00;;;;;;4902980;28;46317;-67
2022/05/09 09:07:25;;;;;;;1.98;1.77;;;24.70;47.00;;;;;;4899663;28;45230;-66
2022/05/09 09:10:19;;;;;;;2.63;1.77;;;24.70;47.00;;;;;;4915644;28;45546;-67
2022/05/09 09:13:00;;;;;;;1.52;1.38;;;24.70;47.10;;;;;;4910757;28;45251;-67
2022/05/09 09:15:57;;;;;;;1.52;1.35;;;24.70;47.10;;;;;;4931293;28;45184;-67
2022/05/09 09:18:48;;;;;;;1.75;1.48;;;24.80;47.00;;;;;;4924453;28;45081;-66
2022/05/09 09:21:25;;;;;;;2.20;1.60;;;24.80;47.00;;;;;;4913414;28;45407;-66
2022/05/09 09:24:01;;;;;;;1.48;1.38;;;24.80;47.00;;;;;;4913875;28;45198;-66
2022/05/09 09:26:38;;;;;;;1.65;1.55;;;24.80;47.00;;;;;;4930666;28;45723;-65
2022/05/09 09:29:18;;;;;;;1.60;1.50;;;24.80;47.00;;;;;;4929123;28;45576;-65
2022/05/09 09:32:12;;;;;;;1.65;1.40;;;24.80;47.00;;;;;;4902930;28;46475;-65
2022/05/09 09:34:46;;;;;;;1.42;1.33;;;24.90;47.00;;;;;;4902704;28;45470;-67
2022/05/09 09:37:17;;;;;;;2.20;1.77;;;24.90;47.00;;;;;;4915097;28;45183;-65
2022/05/09 09:39:43;;;;;;;3.03;2.00;;;24.90;47.00;;;;;;4895149;28;45498;-65
2022/05/09 09:42:09;;;;;;;2.30;1.50;;;24.90;47.00;;;;;;4924984;28;46659;-63
2022/05/09 09:44:38;;;;;;;1.42;1.33;;;24.90;47.00;;;;;;4912814;28;44890;-68
2022/05/09 09:47:27;;;;;;;1.35;1.25;;;25.00;47.00;;;;;;4902674;28;45211;-66
2022/05/09 09:50:15;;;;;;;1.40;1.30;;;25.00;47.00;;;;;;4914129;28;45338;-67
2022/05/09 09:52:43;;;;;;;1.75;1.45;;;25.00;46.90;;;;;;4940961;28;45476;-69
2022/05/09 09:55:26;;;;;;;1.60;1.50;;;25.00;47.00;;;;;;4918114;28;45673;-70
2022/05/09 09:57:53;;;;;;;1.45;1.35;;;25.00;46.90;;;;;;4924137;28;44816;-65
2022/05/09 10:00:30;;;;;;;2.30;1.50;;;25.00;46.90;;;;;;4914721;28;45163;-71
2022/05/09 10:03:13;;;;;;;1.10;1.02;;;25.10;46.90;;;;;;4904053;28;45340;-66
2022/05/09 10:05:38;;;;;;;1.60;1.50;;;25.10;46.90;;;;;;4912116;28;45269;-70
2022/05/09 10:08:33;;;;;;;2.42;1.63;;;25.10;46.90;;;;;;4900613;28;45752;-67
2022/05/09 10:11:22;;;;;;;1.60;1.38;;;25.10;46.80;;;;;;4904729;28;45146;-67
2022/05/09 10:13:49;;;;;;;1.48;1.15;;;25.10;46.90;;;;;;4914784;28;45386;-69
2022/05/09 10:16:30;;;;;;;1.45;1.38;;;25.10;46.90;;;;;;4897601;28;44808;-67
2022/05/09 10:18:56;;;;;;;1.35;1.25;;;25.20;46.90;;;;;;4910080;28;45608;-69
2022/05/09 10:24:51;;;;;;;2.83;1.40;;;25.20;46.80;;;;;;4906815;28;47904;-68
2022/05/09 10:27:28;;;;;;;2.80;1.60;;;25.20;46.90;;;;;;4913116;28;45238;-68
2022/05/09 10:29:57;;;;;;;1.35;1.25;;;25.20;46.90;;;;;;4933166;28;45209;-66
2022/05/09 10:32:32;;;;;;;1.80;1.40;;;25.20;46.80;;;;;;4910172;28;45490;-67
2022/05/09 10:35:23;;;;;;;1.50;1.40;;;25.20;46.80;;;;;;4919600;28;45398;-67
2022/05/09 10:37:51;;;;;;;1.98;1.30;;;25.20;46.80;;;;;;4904651;28;45311;-70
2022/05/09 10:40:30;;;;;;;1.50;1.40;;;25.20;46.80;;;;;;4923046;28;45291;-69
2022/05/09 10:43:03;;;;;;;2.78;1.30;;;25.20;46.80;;;;;;4924399;28;45311;-67
2022/05/09 10:45:31;;;;;;;2.08;1.38;;;25.20;46.80;;;;;;4920842;28;45439;-66
2022/05/09 10:48:06;;;;;;;1.58;1.45;;;25.20;46.80;;;;;;4922571;28;44931;-66
2022/05/09 10:50:41;;;;;;;1.50;1.27;;;25.20;46.80;;;;;;4937732;28;45149;-67
2022/05/09 10:53:15;;;;;;;1.42;1.33;;;25.20;46.80;;;;;;4918975;28;45324;-69
2022/05/09 10:56:03;;;;;;;1.50;1.30;;;25.30;46.80;;;;;;4928393;28;45407;-67
2022/05/09 10:58:46;;;;;;;1.70;1.48;;;25.30;46.80;;;;;;4918487;28;45089;-65
2022/05/09 11:01:41;;;;;;;1.58;1.48;;;25.30;46.80;;;;;;4913065;28;45154;-67
2022/05/09 11:04:07;;;;;;;1.30;1.20;;;25.30;46.80;;;;;;4918976;28;45232;-66
2022/05/09 11:06:41;;;;;;;1.70;1.60;;;25.30;46.90;;;;;;4916797;28;46617;-66
2022/05/09 11:09:42;;;;;;;1.45;1.35;;;25.30;46.90;;;;;;4912714;28;45230;-63
2022/05/09 11:12:08;;;;;;;1.30;1.20;;;25.30;46.80;;;;;;4921392;28;45262;-64
2022/05/09 11:15:07;;;;;;;1.45;1.35;;;25.30;46.80;;;;;;4912727;28;44947;-67
2022/05/09 11:17:44;;;;;;;3.25;1.17;;;25.40;46.80;;;;;;4915254;28;47090;-65
2022/05/09 11:20:31;;;;;;;1.42;1.33;;;25.40;46.90;;;;;;4916502;28;44782;-64
2022/05/09 11:23:19;;;;;;;1.63;1.10;;;25.40;46.90;;;;;;4923244;28;45939;-63
2022/05/09 11:26:03;;;;;;;1.40;1.30;;;25.40;46.90;;;;;;4915480;28;45481;-64
2022/05/09 11:28:41;;;;;;;1.77;1.60;;;25.40;46.90;;;;;;4913892;28;46926;-63
2022/05/09 11:31:45;;;;;;;1.65;1.52;;;25.40;46.80;;;;;;4912192;28;45204;-65
2022/05/09 11:34:11;;;;;;;1.20;1.10;;;25.40;47.10;;;;;;4928943;28;44892;-63
2022/05/09 11:37:02;;;;;;;1.23;1.13;;;25.40;46.80;;;;;;4921219;28;44739;-68
2022/05/09 11:40:08;;;;;;;1.35;1.25;;;25.40;46.80;;;;;;4910149;28;46532;-66
2022/05/09 11:45:47;;;;;;;1.55;1.33;;;25.40;46.90;;;;;;4906111;28;44932;-64
2022/05/09 11:48:33;;;;;;;1.90;1.33;;;25.40;46.90;;;;;;4904624;28;45754;-66
2022/05/09 11:51:18;;;;;;;1.45;1.35;;;25.50;47.00;;;;;;4907852;28;46368;-65
2022/05/09 11:53:46;;;;;;;1.40;1.30;;;25.50;47.00;;;;;;4908491;28;45178;-66
2022/05/09 11:56:11;;;;;;;1.70;1.60;;;25.50;47.00;;;;;;4908877;28;45261;-69
2022/05/09 11:58:38;;;;;;;1.63;1.30;;;25.50;47.00;;;;;;4914515;28;44932;-66
2022/05/09 12:01:04;;;;;;;1.40;1.30;;;25.50;47.00;;;;;;4905421;28;45595;-65
2022/05/09 12:03:39;;;;;;;1.17;1.15;;;25.50;47.00;;;;;;4907391;28;45350;-67
2022/05/09 12:06:05;;;;;;;1.33;1.23;;;25.50;47.00;;;;;;4908306;28;45668;-67
2022/05/09 12:08:41;;;;;;;1.80;1.45;;;25.50;47.00;;;;;;4914740;28;45460;-65
2022/05/09 12:11:25;;;;;;;1.40;1.30;;;25.50;47.00;;;;;;4913770;28;45441;-65
2022/05/09 12:13:52;;;;;;;1.67;1.13;;;25.60;47.10;;;;;;4911113;28;44977;-65
2022/05/09 12:16:40;;;;;;;2.53;1.50;;;25.50;47.00;;;;;;4911178;28;45259;-68
2022/05/09 12:19:05;;;;;;;1.30;1.20;;;25.60;47.10;;;;;;4899245;28;45342;-66
2022/05/09 12:21:37;;;;;;;1.55;1.45;;;25.60;47.10;;;;;;4916500;28;45527;-68
2022/05/09 12:24:14;;;;;;;1.48;1.27;;;25.60;47.10;;;;;;4885529;28;45316;-70
2022/05/09 12:26:42;;;;;;;1.60;1.50;;;25.60;47.00;;;;;;4917218;28;45880;-66
2022/05/09 12:29:28;;;;;;;1.60;1.50;;;25.70;47.10;;;;;;4895083;28;44739;-64
2022/05/09 12:32:00;;;;;;;1.52;1.42;;;25.70;47.10;;;;;;4924193;28;45382;-65
2022/05/09 12:34:41;;;;;;;4.50;1.80;;;25.70;47.20;;;;;;4917303;28;45177;-67
2022/05/09 12:37:07;;;;;;;1.13;1.10;;;25.70;47.20;;;;;;4913465;28;45191;-69
2022/05/09 12:39:34;;;;;;;2.38;1.50;;;25.70;47.20;;;;;;4899658;28;45445;-69
2022/05/09 12:42:01;;;;;;;1.40;1.30;;;25.70;47.20;;;;;;4916654;28;46339;-68
2022/05/09 12:44:44;;;;;;;2.08;1.70;;;25.70;47.20;;;;;;4914771;28;45093;-65
2022/05/09 12:47:15;;;;;;;1.38;1.27;;;25.70;47.20;;;;;;4925417;28;45015;-69
2022/05/09 12:49:56;;;;;;;1.50;1.40;;;25.70;47.20;;;;;;4901357;28;44791;-62
2022/05/09 12:52:24;;;;;;;1.50;1.40;;;25.70;47.20;;;;;;4901325;28;45352;-67
2022/05/09 12:57:38;;;;;;;1.48;1.30;;;25.80;47.20;;;;;;4926893;28;45227;-65
2022/05/09 13:00:19;;;;;;;3.25;1.52;;;25.80;47.30;;;;;;4919540;28;45398;-66
2022/05/09 13:02:46;;;;;;;1.70;1.60;;;25.80;47.30;;;;;;4918683;28;47833;-66
2022/05/09 13:05:13;;;;;;;1.55;1.45;;;25.80;47.30;;;;;;4917251;28;45209;-65
2022/05/09 13:07:57;;;;;;;2.10;1.90;;;25.80;47.30;;;;;;4917357;28;45330;-65
2022/05/09 13:10:23;;;;;;;3.90;1.48;;;25.80;47.30;;;;;;4915178;28;46092;-64
2022/05/09 13:12:49;;;;;;;3.58;1.55;;;25.80;47.30;;;;;;4920262;28;45607;-64
2022/05/09 13:15:17;;;;;;;1.55;1.45;;;25.80;47.30;;;;;;4885979;28;45156;-65
2022/05/09 13:17:56;;;;;;;1.90;1.63;;;25.80;47.30;;;;;;4911047;28;45346;-65
2022/05/09 13:20:23;;;;;;;1.90;1.52;;;25.80;47.30;;;;;;4916397;28;45182;-65
2022/05/09 13:23:07;;;;;;;1.35;1.25;;;25.80;47.30;;;;;;4919079;28;46609;-69
2022/05/09 13:25:49;;;;;;;1.55;1.38;;;25.90;47.40;;;;;;4917188;28;44765;-68
2022/05/09 13:28:17;;;;;;;1.48;1.33;;;25.90;47.30;;;;;;4904854;28;44923;-68
2022/05/09 13:30:53;;;;;;;1.95;1.80;;;25.90;47.30;;;;;;4915573;28;45740;-68
2022/05/09 13:33:20;;;;;;;1.50;1.30;;;25.90;47.40;;;;;;4919774;28;45287;-68
2022/05/09 13:35:53;;;;;;;1.40;1.30;;;25.90;47.30;;;;;;4905052;28;45298;-68
2022/05/09 13:38:20;;;;;;;1.40;1.30;;;25.90;47.30;;;;;;4898512;28;44909;-67
2022/05/09 13:40:46;;;;;;;1.42;1.20;;;26.00;47.40;;;;;;4911040;28;44822;-65
2022/05/09 13:43:16;;;;;;;1.35;1.25;;;25.90;47.30;;;;;;4914681;28;45587;-62
2022/05/09 13:45:42;;;;;;;1.50;1.40;;;25.90;47.40;;;;;;4906235;28;45250;-65
2022/05/09 13:48:17;;;;;;;1.52;1.42;;;26.00;47.40;;;;;;4923090;28;45291;-64
2022/05/09 13:50:43;;;;;;;1.67;1.52;;;26.00;47.40;;;;;;4916597;28;46406;-64
2022/05/09 13:53:12;;;;;;;1.25;1.15;;;26.00;47.40;;;;;;4933589;28;45285;-66
2022/05/09 13:55:42;;;;;;;1.30;1.20;;;26.00;47.50;;;;;;4897855;28;45302;-68
2022/05/09 13:58:08;;;;;;;1.40;1.30;;;26.00;47.50;;;;;;4903830;28;45142;-66
2022/05/09 14:00:40;;;;;;;1.42;1.33;;;26.00;47.40;;;;;;4912672;28;45222;-68
2022/05/09 14:03:30;;;;;;;1.70;1.60;;;26.00;47.40;;;;;;4912123;28;45708;-67
2022/05/09 14:05:58;;;;;;;1.45;1.35;;;26.00;47.40;;;;;;4916581;28;45210;-65
2022/05/09 14:08:25;;;;;;;1.50;1.40;;;26.00;47.40;;;;;;4919990;28;45402;-67
2022/05/09 14:11:05;;;;;;;1.70;1.38;;;26.00;47.40;;;;;;4919800;28;45156;-66
2022/05/09 14:13:33;;;;;;;1.77;1.25;;;26.00;47.40;;;;;;4922267;28;46494;-65
2022/05/09 14:16:07;;;;;;;1.55;1.45;;;26.10;47.50;;;;;;4921478;28;45208;-68
2022/05/09 14:18:40;;;;;;;1.27;1.17;;;26.00;47.40;;;;;;4900050;28;44777;-65
2022/05/09 14:21:07;;;;;;;1.38;1.27;;;26.00;47.40;;;;;;4897627;28;45318;-71
2022/05/09 14:23:33;;;;;;;1.50;1.40;;;26.00;47.50;;;;;;4921103;28;45582;-64
2022/05/09 14:31:44;;;;;;;1.60;1.50;;;26.10;47.50;;;;;;4929799;28;45206;-65
2022/05/09 14:34:23;;;;;;;2.75;1.42;;;26.10;47.50;;;;;;4904800;28;45370;-67
2022/05/09 14:36:49;;;;;;;1.40;1.30;;;26.10;47.50;;;;;;4915626;28;44700;-70
2022/05/09 14:39:31;;;;;;;1.50;1.30;;;26.10;47.50;;;;;;4918408;28;44883;-69
2022/05/09 14:42:10;;;;;;;1.30;1.20;;;26.10;47.50;;;;;;4917269;28;45114;-69
2022/05/09 14:44:36;;;;;;;1.45;1.35;;;26.10;47.40;;;;;;4938144;28;45531;-70
2022/05/09 14:47:07;;;;;;;1.25;1.00;;;26.10;47.50;;;;;;4895003;28;45530;-72
2022/05/09 14:49:52;;;;;;;2.05;1.50;;;26.10;47.50;;;;;;4927324;28;46801;-67
2022/05/09 14:52:31;;;;;;;1.33;1.23;;;26.10;47.50;;;;;;4926662;28;45418;-68
2022/05/09 14:58:15;;;;;;;1.40;1.30;;;26.10;47.50;;;;;;4914859;28;45983;-70
2022/05/09 15:00:43;;;;;;;1.45;1.35;;;26.00;47.40;;;;;;4907429;28;45586;-69
2022/05/09 15:03:10;;;;;;;1.58;1.48;;;26.00;47.50;;;;;;4919742;28;45022;-69
2022/05/09 15:05:36;;;;;;;1.40;1.30;;;26.00;47.50;;;;;;4902699;28;45442;-67
2022/05/09 15:08:01;;;;;;;1.38;1.27;;;26.10;47.50;;;;;;4928487;28;45530;-69
2022/05/09 15:10:29;;;;;;;1.30;1.20;;;26.00;47.40;;;;;;4915914;28;45361;-70
2022/05/09 15:12:55;;;;;;;2.25;1.35;;;26.00;47.40;;;;;;4915330;28;45346;-70
2022/05/09 15:15:21;;;;;;;2.42;1.38;;;26.00;47.40;;;;;;4907168;28;45238;-72
2022/05/09 15:17:47;;;;;;;2.17;1.80;;;26.00;47.40;;;;;;4912319;28;44954;-68
2022/05/09 15:20:13;;;;;;;2.20;1.60;;;26.00;47.40;;;;;;4907631;28;45257;-68
2022/05/09 15:22:38;;;;;;;2.25;1.70;;;26.00;47.40;;;;;;4908101;28;44941;-73
2022/05/09 15:25:05;;;;;;;1.70;1.60;;;26.00;47.40;;;;;;4919742;28;46510;-68
2022/05/09 15:27:30;;;;;;;2.05;1.52;;;26.00;47.40;;;;;;4903687;28;45162;-69
2022/05/09 15:29:56;;;;;;;1.83;1.73;;;26.00;47.40;;;;;;4910202;28;45498;-68
2022/05/09 15:32:22;;;;;;;1.50;1.40;;;26.00;47.40;;;;;;4907991;28;45364;-67
2022/05/09 15:34:48;;;;;;;1.55;1.45;;;26.00;47.30;;;;;;4901770;28;45563;-66
2022/05/09 15:37:14;;;;;;;1.52;1.42;;;26.10;47.40;;;;;;4920177;28;45347;-66
2022/05/09 15:39:40;;;;;;;2.97;1.60;;;26.00;47.30;;;;;;4898791;28;44819;-68
2022/05/09 15:42:27;;;;;;;1.77;1.63;;;26.00;47.30;;;;;;4931361;28;45271;-69
2022/05/09 15:45:01;;;;;;;2.15;1.95;;;26.10;47.30;;;;;;4889118;28;45744;-67
2022/05/09 15:47:34;;;;;;;1.70;1.52;;;26.10;47.30;;;;;;4910593;28;45400;-67
2022/05/09 15:50:00;;;;;;;1.73;1.63;;;26.10;47.30;;;;;;4897663;28;44699;-68
2022/05/09 15:52:32;;;;;;;1.63;1.50;;;26.00;47.20;;;;;;4901105;28;45603;-67
2022/05/09 15:55:05;;;;;;;1.60;1.50;;;26.00;47.20;;;;;;4896171;28;46633;-69
2022/05/09 15:57:30;;;;;;;2.15;1.60;;;26.10;47.90;;;;;;4908793;28;45294;-69
2022/05/09 16:00:00;;;;;;;1.70;1.60;;;26.10;47.30;;;;;;4898488;28;45610;-70
2022/05/09 16:02:27;;;;;;;1.80;1.70;;;26.00;47.20;;;;;;4895851;28;45689;-73
2022/05/09 16:04:52;;;;;;;1.50;1.40;;;26.10;47.30;;;;;;4911770;28;48439;-68
2022/05/09 16:12:47;;;;;;;1.50;1.40;;;26.10;47.30;;;;;;4937135;28;45375;-72
2022/05/09 16:15:13;;;;;;;1.50;1.40;;;26.00;47.20;;;;;;4891350;28;45409;-68
2022/05/09 16:17:38;;;;;;;1.77;1.63;;;26.10;47.20;;;;;;4894284;28;45361;-74
2022/05/09 16:20:06;;;;;;;1.92;1.48;;;26.00;47.20;;;;;;4899380;28;45223;-73
2022/05/09 16:22:32;;;;;;;1.67;1.58;;;26.00;47.20;;;;;;4878133;28;45527;-70
2022/05/09 16:24:58;;;;;;;1.77;1.67;;;26.00;47.20;;;;;;4890736;28;46600;-71
2022/05/09 16:27:37;;;;;;;1.85;1.70;;;26.00;47.20;;;;;;4920916;28;45328;-72
2022/05/09 16:30:11;;;;;;;2.08;1.75;;;26.00;47.20;;;;;;4881759;28;45565;-74
2022/05/09 16:32:38;;;;;;;1.63;1.52;;;26.00;47.30;;;;;;4894246;28;45892;-70
2022/05/09 16:35:04;;;;;;;1.58;1.48;;;26.00;47.30;;;;;;4892453;28;46935;-70